createdAt,value
2018-09-27T00:01:35.116Z,2.30
2018-09-27T00:04:03.196Z,2.58
2018-09-27T00:06:31.292Z,2.35
2018-09-27T00:08:59.415Z,2.52
2018-09-27T00:11:27.512Z,2.45
2018-09-27T00:13:55.617Z,2.87
2018-09-27T00:16:23.703Z,2.80
2018-09-27T00:18:51.791Z,3.15
2018-09-27T00:21:19.866Z,2.45
2018-09-27T00:23:47.940Z,2.62
2018-09-27T00:26:16.012Z,1.95
2018-09-27T00:28:44.087Z,2.20
2018-09-27T00:31:12.163Z,2.52
2018-09-27T00:33:40.239Z,2.77
2018-09-27T00:36:08.328Z,2.50
2018-09-27T00:38:36.473Z,2.37
2018-09-27T00:41:04.629Z,2.25
2018-09-27T00:43:32.731Z,2.70
2018-09-27T00:46:00.815Z,2.55
2018-09-27T00:48:28.904Z,2.02
2018-09-27T00:50:57.012Z,2.70
2018-09-27T00:53:25.091Z,2.25
2018-09-27T00:55:53.178Z,2.05
2018-09-27T00:58:21.252Z,2.80
2018-09-27T01:00:49.690Z,2.33
2018-09-27T01:03:17.794Z,3.00
2018-09-27T01:05:45.863Z,2.27
2018-09-27T01:08:13.926Z,2.85
2018-09-27T01:10:42.168Z,2.22
2018-09-27T01:13:10.243Z,2.87
2018-09-27T01:15:38.358Z,3.08
2018-09-27T01:18:06.717Z,3.08
2018-09-27T01:20:34.812Z,2.15
2018-09-27T01:23:02.879Z,2.50
2018-09-27T01:25:30.961Z,2.47
2018-09-27T01:27:59.091Z,2.70
2018-09-27T01:30:27.200Z,2.67
2018-09-27T01:32:55.268Z,2.00
2018-09-27T01:35:23.349Z,2.12
2018-09-27T01:37:51.412Z,2.62
2018-09-27T01:40:19.480Z,2.35
2018-09-27T01:42:47.556Z,2.15
2018-09-27T01:45:15.626Z,2.72
2018-09-27T01:47:43.713Z,3.00
2018-09-27T01:50:11.785Z,2.00
2018-09-27T01:52:40.032Z,2.58
2018-09-27T01:55:08.131Z,2.47
2018-09-27T01:57:36.207Z,2.92
2018-09-27T02:00:04.306Z,3.05
2018-09-27T02:02:32.416Z,2.12
2018-09-27T02:05:00.500Z,2.40
2018-09-27T02:07:28.571Z,2.98
2018-09-27T02:09:56.647Z,2.77
2018-09-27T02:12:24.731Z,2.50
2018-09-27T02:14:52.808Z,2.77
2018-09-27T02:17:20.874Z,2.92
2018-09-27T02:19:48.971Z,2.90
2018-09-27T02:22:17.116Z,3.40
2018-09-27T02:24:45.196Z,2.75
2018-09-27T02:27:13.272Z,3.85
2018-09-27T02:29:41.707Z,3.02
2018-09-27T02:32:09.816Z,2.83
2018-09-27T02:34:37.941Z,3.27
2018-09-27T02:37:06.025Z,2.87
2018-09-27T02:39:34.090Z,3.33
2018-09-27T02:42:02.180Z,3.60
2018-09-27T02:44:30.265Z,3.25
2018-09-27T02:46:58.404Z,3.50
2018-09-27T02:49:26.483Z,2.80
2018-09-27T02:51:54.655Z,2.90
2018-09-27T02:54:22.775Z,2.50
2018-09-27T02:56:50.838Z,2.60
2018-09-27T02:59:18.931Z,3.55
2018-09-27T03:01:47.003Z,3.47
2018-09-27T03:04:15.079Z,2.60
2018-09-27T03:06:43.155Z,3.30
2018-09-27T03:09:12.318Z,3.12
2018-09-27T03:11:40.473Z,2.92
2018-09-27T03:14:08.567Z,3.00
2018-09-27T03:16:36.635Z,3.00
2018-09-27T03:19:04.708Z,3.58
2018-09-27T03:21:32.803Z,3.90
2018-09-27T03:24:00.890Z,3.55
2018-09-27T03:26:28.955Z,3.35
2018-09-27T03:28:57.046Z,2.80
2018-09-27T03:31:25.209Z,2.90
2018-09-27T03:33:53.292Z,2.60
2018-09-27T03:36:21.445Z,2.60
2018-09-27T03:38:49.512Z,3.25
2018-09-27T03:41:17.623Z,3.60
2018-09-27T03:43:45.700Z,2.85
2018-09-27T03:46:13.801Z,3.15
2018-09-27T03:48:41.944Z,2.65
2018-09-27T03:51:10.021Z,2.50
2018-09-27T03:53:38.092Z,3.10
2018-09-27T03:56:06.235Z,3.45
2018-09-27T03:58:34.305Z,3.20
2018-09-27T04:01:02.390Z,2.87
2018-09-27T04:03:30.520Z,2.42
2018-09-27T04:05:58.625Z,3.77
2018-09-27T04:08:26.736Z,2.72
2018-09-27T04:10:54.871Z,3.22
2018-09-27T04:13:23.007Z,3.60
2018-09-27T04:15:51.154Z,3.40
2018-09-27T04:18:19.178Z,3.27
2018-09-27T04:20:50.525Z,3.15
2018-09-27T04:23:19.532Z,2.87
2018-09-27T04:25:47.668Z,3.50
2018-09-27T04:28:15.879Z,3.35
2018-09-27T04:30:44.006Z,3.08
2018-09-27T04:33:12.087Z,3.90
2018-09-27T04:35:40.168Z,3.10
2018-09-27T04:38:08.259Z,3.20
2018-09-27T04:40:36.413Z,3.22
2018-09-27T04:43:04.782Z,3.60
2018-09-27T04:45:32.887Z,3.87
2018-09-27T04:48:00.979Z,3.95
2018-09-27T04:50:29.044Z,3.20
2018-09-27T04:52:57.116Z,3.05
2018-09-27T04:55:25.184Z,3.87
2018-09-27T04:57:53.271Z,3.65
2018-09-27T05:00:21.323Z,2.95
2018-09-27T05:02:49.404Z,4.25
2018-09-27T05:05:17.468Z,3.30
2018-09-27T05:07:45.530Z,4.10
2018-09-27T05:10:13.604Z,3.40
2018-09-27T05:12:41.703Z,3.55
2018-09-27T05:15:09.773Z,3.55
2018-09-27T05:17:37.847Z,3.70
2018-09-27T05:20:05.920Z,4.78
2018-09-27T05:22:33.989Z,3.52
2018-09-27T05:25:02.127Z,4.22
2018-09-27T05:27:30.207Z,4.22
2018-09-27T05:29:58.304Z,3.83
2018-09-27T05:32:26.391Z,4.05
2018-09-27T05:34:54.470Z,4.55
2018-09-27T05:37:22.547Z,4.40
2018-09-27T05:39:50.643Z,4.05
2018-09-27T05:42:18.699Z,4.95
2018-09-27T05:44:46.782Z,4.15
2018-09-27T05:47:14.873Z,4.75
2018-09-27T05:49:42.962Z,4.58
2018-09-27T05:52:11.184Z,4.65
2018-09-27T05:54:39.404Z,4.87
2018-09-27T05:57:07.508Z,4.95
2018-09-27T05:59:35.590Z,6.15
2018-09-27T06:02:03.689Z,5.65
2018-09-27T06:04:31.794Z,5.75
2018-09-27T06:06:59.878Z,4.92
2018-09-27T06:09:28.020Z,5.72
2018-09-27T06:11:56.044Z,4.80
2018-09-27T06:14:24.127Z,5.22
2018-09-27T06:16:52.232Z,5.72
2018-09-27T06:19:20.336Z,5.80
2018-09-27T06:21:48.370Z,6.12
2018-09-27T06:24:16.447Z,6.10
2018-09-27T06:26:44.527Z,5.95
2018-09-27T06:29:12.591Z,5.70
2018-09-27T06:31:40.669Z,5.78
2018-09-27T06:34:08.738Z,5.15
2018-09-27T06:36:36.827Z,4.90
2018-09-27T06:39:07.028Z,5.22
2018-09-27T06:41:35.089Z,5.62
2018-09-27T06:44:03.175Z,4.75
2018-09-27T06:46:31.235Z,4.40
2018-09-27T06:48:59.307Z,4.90
2018-09-27T06:51:27.417Z,5.12
2018-09-27T06:53:55.522Z,5.28
2018-09-27T06:56:23.646Z,5.05
2018-09-27T06:58:51.712Z,5.55
2018-09-27T07:01:19.806Z,6.30
2018-09-27T07:03:47.879Z,5.20
2018-09-27T07:06:15.972Z,5.30
2018-09-27T07:08:44.329Z,5.20
2018-09-27T07:11:12.336Z,6.60
2018-09-27T07:13:40.402Z,8.00
2018-09-27T07:16:08.475Z,8.60
2018-09-27T07:18:36.674Z,7.58
2018-09-27T07:21:04.719Z,7.17
2018-09-27T07:23:32.807Z,6.67
2018-09-27T07:26:00.879Z,6.53
2018-09-27T07:28:28.941Z,7.28
2018-09-27T07:30:57.049Z,7.30
2018-09-27T07:33:25.079Z,7.00
2018-09-27T07:35:53.150Z,7.37
2018-09-27T07:38:21.253Z,7.33
2018-09-27T07:40:49.359Z,7.20
2018-09-27T07:43:17.440Z,6.95
2018-09-27T07:45:45.532Z,7.90
2018-09-27T07:48:13.604Z,7.72
2018-09-27T07:50:41.790Z,8.30
2018-09-27T07:53:09.787Z,8.53
2018-09-27T07:55:37.879Z,6.83
2018-09-27T07:58:06.060Z,6.95
2018-09-27T08:00:34.227Z,7.25
2018-09-27T08:03:02.415Z,8.55
2018-09-27T08:05:30.529Z,7.37
2018-09-27T08:07:58.725Z,7.97
2018-09-27T08:10:26.794Z,6.95
2018-09-27T08:12:54.948Z,8.00
2018-09-27T08:15:23.190Z,7.55
2018-09-27T08:17:51.299Z,6.60
2018-09-27T08:20:19.445Z,7.30
2018-09-27T08:22:47.504Z,7.10
2018-09-27T08:25:15.591Z,7.10
2018-09-27T08:27:43.680Z,7.25
2018-09-27T08:30:11.808Z,6.70
2018-09-27T08:32:39.966Z,7.30
2018-09-27T08:35:07.960Z,7.75
2018-09-27T08:37:36.027Z,8.13
2018-09-27T08:40:04.148Z,8.53
2018-09-27T08:42:32.249Z,8.23
2018-09-27T08:45:00.443Z,7.40
2018-09-27T08:47:28.428Z,8.98
2018-09-27T08:49:56.526Z,8.40
2018-09-27T08:52:24.602Z,8.45
2018-09-27T08:54:52.710Z,7.13
2018-09-27T08:57:20.830Z,7.67
2018-09-27T08:59:48.933Z,7.67
2018-09-27T09:02:17.311Z,7.10
2018-09-27T09:04:45.483Z,7.43
2018-09-27T09:07:13.628Z,8.80
2018-09-27T09:09:41.718Z,7.93
2018-09-27T09:12:09.881Z,7.03
2018-09-27T09:14:37.936Z,7.80
2018-09-27T09:17:06.746Z,8.27
2018-09-27T09:19:35.299Z,7.03
2018-09-27T09:22:03.372Z,6.53
2018-09-27T09:24:31.538Z,7.23
2018-09-27T09:26:59.679Z,6.70
2018-09-27T09:29:27.942Z,6.80
2018-09-27T09:31:56.080Z,6.83
2018-09-27T09:34:24.287Z,6.50
2018-09-27T09:36:52.435Z,6.23
2018-09-27T09:39:20.579Z,7.27
2018-09-27T09:41:48.748Z,6.77
2018-09-27T09:44:16.908Z,6.07
2018-09-27T09:46:45.073Z,5.53
2018-09-27T09:49:13.268Z,6.70
2018-09-27T09:51:41.452Z,6.10
2018-09-27T09:54:09.796Z,8.00
2018-09-27T09:56:37.960Z,6.63
2018-09-27T09:59:06.160Z,6.23
2018-09-27T10:01:34.305Z,6.70
2018-09-27T10:04:02.452Z,7.20
2018-09-27T10:06:30.644Z,6.77
2018-09-27T10:08:58.839Z,6.57
2018-09-27T10:11:26.995Z,7.40
2018-09-27T10:13:55.176Z,7.30
2018-09-27T10:16:23.343Z,7.30
2018-09-27T10:18:51.507Z,7.27
2018-09-27T10:21:19.727Z,8.60
2018-09-27T10:23:48.632Z,6.77
2018-09-27T10:26:16.813Z,6.43
2018-09-27T10:28:45.016Z,6.50
2018-09-27T10:31:13.187Z,7.00
2018-09-27T10:33:41.339Z,7.07
2018-09-27T10:36:09.597Z,5.83
2018-09-27T10:38:37.867Z,6.23
2018-09-27T10:41:06.086Z,6.57
2018-09-27T10:43:34.276Z,5.67
2018-09-27T10:46:02.480Z,5.23
2018-09-27T10:48:30.661Z,5.87
2018-09-27T10:50:58.826Z,5.73
2018-09-27T10:53:27.044Z,5.80
2018-09-27T10:55:55.912Z,5.90
2018-09-27T10:58:24.116Z,5.23
2018-09-27T11:00:52.292Z,4.87
2018-09-27T11:03:20.528Z,5.13
2018-09-27T11:05:48.774Z,5.57
2018-09-27T11:08:16.973Z,6.27
2018-09-27T11:10:45.167Z,5.70
2018-09-27T11:13:13.415Z,6.10
2018-09-27T11:15:41.631Z,5.93
2018-09-27T11:18:09.863Z,5.10
2018-09-27T11:20:38.085Z,4.70
2018-09-27T11:23:06.266Z,5.40
2018-09-27T11:25:34.493Z,4.87
2018-09-27T11:28:02.648Z,4.53
2018-09-27T11:30:32.275Z,4.73
2018-09-27T11:33:00.450Z,4.20
2018-09-27T11:35:28.582Z,4.60
2018-09-27T11:37:56.689Z,4.10
2018-09-27T11:40:24.801Z,4.13
2018-09-27T11:42:52.954Z,4.30
2018-09-27T11:45:21.120Z,4.33
2018-09-27T11:47:49.310Z,4.00
2018-09-27T11:50:17.547Z,4.60
2018-09-27T11:52:45.680Z,3.97
2018-09-27T11:55:13.911Z,4.17
2018-09-27T11:57:42.105Z,4.10
2018-09-27T12:00:10.335Z,3.87
2018-09-27T12:02:38.732Z,3.30
2018-09-27T12:05:06.904Z,3.60
2018-09-27T12:07:35.057Z,3.97
2018-09-27T12:10:03.224Z,4.13
2018-09-27T12:12:31.379Z,3.60
2018-09-27T12:14:59.569Z,3.73
2018-09-27T12:17:27.688Z,3.67
2018-09-27T12:19:55.764Z,3.10
2018-09-27T12:22:23.843Z,4.00
2018-09-27T12:24:51.976Z,3.57
2018-09-27T12:27:20.080Z,4.20
2018-09-27T12:29:48.172Z,3.47
2018-09-27T12:32:16.240Z,3.10
2018-09-27T12:34:44.348Z,3.43
2018-09-27T12:37:12.422Z,3.53
2018-09-27T12:39:40.533Z,3.30
2018-09-27T12:42:08.725Z,4.00
2018-09-27T12:44:36.663Z,3.27
2018-09-27T12:47:04.760Z,3.10
2018-09-27T12:49:32.847Z,2.50
2018-09-27T12:52:01.129Z,3.37
2018-09-27T12:54:28.999Z,2.50
2018-09-27T12:56:57.119Z,2.73
2018-09-27T12:59:25.285Z,2.70
2018-09-27T13:01:53.468Z,2.40
2018-09-27T13:04:21.500Z,3.13
2018-09-27T13:06:49.614Z,2.57
2018-09-27T13:09:17.856Z,3.13
2018-09-27T13:11:45.849Z,3.00
2018-09-27T13:14:14.070Z,2.20
2018-09-27T13:16:42.244Z,2.30
2018-09-27T13:19:10.492Z,2.50
2018-09-27T13:21:38.672Z,2.90
2018-09-27T13:24:06.813Z,3.10
2018-09-27T13:26:35.078Z,2.77
2018-09-27T13:29:03.213Z,2.67
2018-09-27T13:31:31.514Z,2.63
2018-09-27T13:33:59.719Z,2.50
2018-09-27T13:36:27.856Z,2.30
2018-09-27T13:38:56.093Z,2.57
2018-09-27T13:41:24.239Z,2.60
2018-09-27T13:43:52.424Z,2.60
2018-09-27T13:46:20.575Z,2.20
2018-09-27T13:48:48.814Z,3.20
2018-09-27T13:51:16.853Z,2.23
2018-09-27T13:53:45.025Z,2.70
2018-09-27T13:56:13.188Z,2.93
2018-09-27T13:58:41.364Z,2.60
2018-09-27T14:01:09.598Z,2.67
2018-09-27T14:03:37.604Z,2.53
2018-09-27T14:06:05.699Z,3.17
2018-09-27T14:08:33.804Z,2.70
2018-09-27T14:11:01.899Z,2.03
2018-09-27T14:13:30.056Z,2.67
2018-09-27T14:15:58.180Z,3.27
2018-09-27T14:18:26.273Z,2.33
2018-09-27T14:23:28.872Z,3.13
2018-09-27T14:25:56.952Z,2.80
2018-09-27T14:28:25.136Z,2.87
2018-09-27T14:30:53.368Z,2.30
2018-09-27T14:33:21.568Z,2.27
2018-09-27T14:35:49.764Z,2.40
2018-09-27T14:38:17.982Z,2.80
2018-09-27T14:40:46.177Z,2.50
2018-09-27T14:43:14.365Z,2.70
2018-09-27T14:45:42.579Z,2.50
2018-09-27T14:48:10.965Z,1.97
2018-09-27T14:50:39.200Z,2.00
2018-09-27T14:53:07.350Z,2.30
2018-09-27T14:55:36.256Z,3.17
2018-09-27T14:58:04.476Z,2.50
2018-09-27T15:00:32.698Z,2.20
2018-09-27T15:03:00.864Z,1.67
2018-09-27T15:05:29.071Z,1.77
2018-09-27T15:07:57.270Z,1.93
2018-09-27T15:10:25.600Z,1.43
2018-09-27T15:12:53.830Z,1.90
2018-09-27T15:15:22.004Z,2.00
2018-09-27T15:17:50.245Z,2.03
2018-09-27T15:20:18.391Z,1.30
2018-09-27T15:22:46.665Z,1.83
2018-09-27T15:25:14.871Z,2.43
2018-09-27T15:27:42.981Z,1.83
2018-09-27T15:30:11.047Z,1.63
2018-09-27T15:32:39.136Z,1.43
2018-09-27T15:35:07.247Z,1.80
2018-09-27T15:37:35.389Z,1.40
2018-09-27T15:40:03.967Z,1.63
2018-09-27T15:42:32.056Z,1.77
2018-09-27T15:45:00.288Z,1.40
2018-09-27T15:47:28.465Z,1.70
2018-09-27T15:49:56.664Z,1.40
2018-09-27T15:52:24.918Z,1.30
2018-09-27T15:54:53.752Z,1.30
2018-09-27T15:57:21.972Z,1.70
2018-09-27T15:59:50.160Z,2.03
2018-09-27T16:02:18.333Z,1.87
2018-09-27T16:04:46.601Z,1.90
2018-09-27T16:07:14.860Z,1.73
2018-09-27T16:09:43.153Z,1.70
2018-09-27T16:12:11.413Z,1.73
2018-09-27T16:14:39.857Z,1.33
2018-09-27T16:17:07.896Z,1.83
2018-09-27T16:19:35.963Z,1.70
2018-09-27T16:22:04.127Z,1.83
2018-09-27T16:24:32.213Z,1.90
2018-09-27T16:27:00.309Z,1.73
2018-09-27T16:29:28.444Z,1.30
2018-09-27T16:31:56.476Z,2.07
2018-09-27T16:34:24.598Z,1.50
2018-09-27T16:36:52.744Z,1.40
2018-09-27T16:39:20.828Z,1.90
2018-09-27T16:41:48.913Z,1.77
2018-09-27T16:44:16.979Z,1.33
2018-09-27T16:46:45.112Z,1.80
2018-09-27T16:49:13.183Z,1.70
2018-09-27T16:51:41.289Z,1.83
2018-09-27T16:54:09.420Z,2.10
2018-09-27T16:56:37.673Z,1.87
2018-09-27T16:59:05.760Z,2.00
2018-09-27T17:01:33.895Z,1.60
2018-09-27T17:04:02.004Z,1.70
2018-09-27T17:06:30.284Z,1.53
2018-09-27T17:08:58.501Z,2.40
2018-09-27T17:11:27.086Z,2.60
2018-09-27T17:13:55.249Z,1.70
2018-09-27T17:16:30.912Z,1.57
2018-09-27T17:22:18.223Z,2.30
2018-09-27T17:24:47.688Z,2.27
2018-09-27T17:27:21.425Z,2.70
2018-09-27T17:29:52.396Z,2.40
2018-09-27T17:32:21.065Z,2.70
2018-09-27T17:34:52.481Z,1.93
2018-09-27T17:37:21.723Z,2.97
2018-09-27T17:39:52.901Z,1.83
2018-09-27T17:42:27.820Z,2.40
2018-09-27T17:44:56.183Z,1.90
2018-09-27T17:47:30.948Z,2.53
2018-09-27T17:50:00.810Z,2.00
2018-09-27T17:55:03.075Z,2.07
2018-09-27T17:57:34.125Z,1.93
2018-09-27T18:00:04.749Z,1.97
2018-09-27T18:02:36.069Z,1.63
2018-09-27T18:05:18.812Z,1.83
2018-09-27T18:07:35.116Z,1.90
2018-09-27T18:10:04.392Z,2.27
2018-09-27T18:12:33.796Z,2.00
2018-09-27T18:15:06.388Z,2.10
2018-09-27T18:17:38.934Z,2.20
2018-09-27T18:20:08.598Z,2.00
2018-09-27T18:22:39.013Z,2.13
2018-09-27T18:25:21.175Z,1.33
2018-09-27T18:27:51.798Z,2.10
2018-09-27T18:30:22.653Z,1.90
2018-09-27T18:32:51.044Z,2.20
2018-09-27T18:35:21.029Z,2.33
2018-09-27T18:37:51.003Z,1.80
2018-09-27T18:40:20.670Z,2.13
2018-09-27T18:42:49.892Z,2.20
2018-09-27T18:45:20.266Z,2.37
2018-09-27T18:47:49.573Z,2.97
2018-09-27T18:50:20.812Z,3.00
2018-09-27T18:52:51.807Z,2.50
2018-09-27T18:55:23.123Z,2.70
2018-09-27T18:57:51.539Z,2.70
2018-09-27T19:00:20.475Z,2.73
2018-09-27T19:03:27.108Z,3.30
2018-09-27T19:05:56.182Z,3.33
2018-09-27T19:08:24.779Z,2.50
2018-09-27T19:10:55.462Z,4.07
2018-09-27T19:13:26.654Z,4.00
2018-09-27T19:16:05.956Z,3.33
2018-09-27T19:18:39.327Z,3.23
2018-09-27T19:21:08.439Z,4.57
2018-09-27T19:23:40.088Z,4.43
2018-09-27T19:26:16.714Z,5.03
2018-09-27T19:28:56.034Z,3.53
2018-09-27T19:31:24.427Z,3.53
2018-09-27T19:33:53.017Z,2.53
2018-09-27T19:36:22.061Z,3.13
2018-09-27T19:38:50.612Z,4.33
2018-09-27T19:41:25.631Z,2.60
2018-09-27T19:44:02.716Z,2.40
2018-09-27T19:46:34.023Z,2.30
2018-09-27T19:49:06.514Z,2.60
2018-09-27T19:51:35.916Z,3.10
2018-09-27T19:54:10.044Z,2.33
2018-09-27T19:56:40.643Z,2.20
2018-09-27T19:59:11.492Z,3.97
2018-09-27T20:04:19.897Z,2.67
2018-09-27T20:06:52.178Z,2.90
2018-09-27T20:14:44.680Z,3.60
2018-09-27T20:17:15.076Z,3.47
2018-09-27T20:19:48.788Z,3.60
2018-09-27T20:22:22.602Z,3.20
2018-09-27T20:24:53.199Z,3.37
2018-09-27T20:27:27.398Z,3.10
2018-09-27T20:29:58.290Z,3.30
2018-09-27T20:32:29.300Z,3.23
2018-09-27T20:34:58.167Z,3.77
2018-09-27T20:37:29.284Z,4.03
2018-09-27T20:39:57.585Z,3.17
2018-09-27T20:42:36.135Z,2.83
2018-09-27T20:45:05.424Z,2.77
2018-09-27T20:47:35.497Z,2.73
2018-09-27T20:50:05.099Z,3.23
2018-09-27T20:52:35.257Z,2.97
2018-09-27T20:55:04.797Z,4.10
2018-09-27T20:57:35.685Z,3.60
2018-09-27T21:00:04.216Z,2.60
2018-09-27T21:02:33.701Z,2.97
2018-09-27T21:05:04.477Z,3.37
2018-09-27T21:07:33.761Z,2.97
2018-09-27T21:10:04.327Z,3.10
2018-09-27T21:12:33.904Z,2.17
2018-09-27T21:15:05.920Z,2.73
2018-09-27T21:17:34.819Z,3.30
2018-09-27T21:20:03.470Z,3.57
2018-09-27T21:22:32.290Z,4.10
2018-09-27T21:25:00.633Z,3.83
2018-09-27T21:27:30.553Z,2.97
2018-09-27T21:29:58.904Z,3.00
2018-09-27T21:32:27.330Z,3.30
2018-09-27T21:34:57.571Z,2.33
2018-09-27T21:37:25.927Z,2.80
2018-09-27T21:39:54.795Z,2.80
2018-09-27T21:42:23.623Z,3.50
2018-09-27T21:44:52.142Z,3.30
2018-09-27T21:47:20.385Z,3.60
2018-09-27T21:49:50.193Z,2.83
2018-09-27T21:52:19.148Z,3.43
2018-09-27T21:54:47.547Z,2.63
2018-09-27T21:57:16.972Z,3.23
2018-09-27T21:59:45.317Z,2.77
2018-09-27T22:02:16.126Z,3.58
2018-09-27T22:04:46.264Z,3.37
2018-09-27T22:07:15.978Z,3.10
2018-09-27T22:09:45.825Z,3.40
2018-09-27T22:12:14.126Z,3.27
2018-09-27T22:14:42.716Z,3.20
2018-09-27T22:17:13.475Z,3.47
2018-09-27T22:19:45.893Z,3.20
2018-09-27T22:22:16.204Z,4.03
2018-09-27T22:24:46.828Z,3.10
2018-09-27T22:27:16.485Z,3.73
2018-09-27T22:29:47.022Z,2.93
2018-09-27T22:32:17.146Z,3.33
2018-09-27T22:34:46.893Z,3.50
2018-09-27T22:37:16.689Z,3.57
2018-09-27T22:39:45.122Z,3.23
2018-09-27T22:42:16.943Z,3.70
2018-09-27T22:44:46.771Z,3.80
2018-09-27T22:47:15.517Z,3.40
2018-09-27T22:49:43.762Z,3.62
2018-09-27T22:52:12.697Z,4.22
2018-09-27T22:54:41.771Z,3.53
2018-09-27T22:57:10.111Z,3.90
2018-09-27T22:59:38.919Z,3.10
2018-09-27T23:02:07.223Z,3.60
2018-09-27T23:04:36.656Z,4.03
2018-09-27T23:07:04.868Z,4.23
2018-09-27T23:09:33.169Z,4.50
2018-09-27T23:12:01.333Z,3.80
2018-09-27T23:14:29.488Z,4.13
2018-09-27T23:16:57.736Z,4.30
2018-09-27T23:19:25.921Z,4.40
2018-09-27T23:21:54.140Z,3.77
2018-09-27T23:24:22.175Z,3.07
2018-09-27T23:26:50.252Z,3.30
2018-09-27T23:29:18.320Z,3.80
2018-09-27T23:31:46.384Z,3.90
2018-09-27T23:34:14.503Z,4.80
2018-09-27T23:36:42.602Z,8.13
2018-09-27T23:39:11.168Z,6.47
2018-09-27T23:41:39.639Z,5.12
2018-09-27T23:44:07.930Z,4.60
2018-09-27T23:46:36.035Z,4.60
2018-09-27T23:49:04.117Z,4.65
2018-09-27T23:51:32.191Z,4.80
2018-09-27T23:54:00.280Z,4.53
2018-09-27T23:56:28.361Z,4.87
2018-09-27T23:58:56.436Z,4.90
